createdAt,value
2019-05-18T00:00:16.100Z,4.28
2019-05-18T00:02:43.017Z,4.50
2019-05-18T00:05:10.998Z,5.10
2019-05-18T00:07:37.971Z,5.15
2019-05-18T00:10:06.093Z,4.60
2019-05-18T00:12:33.327Z,4.35
2019-05-18T00:15:00.548Z,4.40
2019-05-18T00:17:27.352Z,4.70
2019-05-18T00:19:54.924Z,4.40
2019-05-18T00:22:22.020Z,4.42
2019-05-18T00:24:49.064Z,4.72
2019-05-18T00:27:16.012Z,4.90
2019-05-18T00:29:43.115Z,4.75
2019-05-18T00:32:10.020Z,4.80
2019-05-18T00:34:37.150Z,4.55
2019-05-18T00:37:04.144Z,4.33
2019-05-18T00:39:31.170Z,5.17
2019-05-18T00:41:58.029Z,4.75
2019-05-18T00:44:25.394Z,5.50
2019-05-18T00:46:52.611Z,5.10
2019-05-18T00:49:19.512Z,5.03
2019-05-18T00:51:46.880Z,5.12
2019-05-18T00:54:13.656Z,5.45
2019-05-18T00:56:40.609Z,5.17
2019-05-18T00:59:07.589Z,5.05
2019-05-18T01:01:34.841Z,5.00
2019-05-18T01:04:01.662Z,4.60
2019-05-18T01:06:28.599Z,4.30
2019-05-18T01:08:55.540Z,5.00
2019-05-18T01:11:22.557Z,4.53
2019-05-18T01:13:49.509Z,4.80
2019-05-18T01:16:16.409Z,4.83
2019-05-18T01:18:43.433Z,4.92
2019-05-18T01:21:10.990Z,5.03
2019-05-18T01:23:37.893Z,4.78
2019-05-18T01:26:05.307Z,5.12
2019-05-18T01:28:32.087Z,5.05
2019-05-18T01:30:59.089Z,5.05
2019-05-18T01:33:25.973Z,4.97
2019-05-18T01:35:55.742Z,5.00
2019-05-18T01:38:22.749Z,4.80
2019-05-18T01:40:49.785Z,5.03
2019-05-18T01:43:16.820Z,4.90
2019-05-18T01:45:43.860Z,4.55
2019-05-18T01:48:13.947Z,5.15
2019-05-18T01:50:39.415Z,5.10
2019-05-18T01:53:06.495Z,4.60
2019-05-18T01:55:33.481Z,4.40
2019-05-18T01:58:00.279Z,4.58
2019-05-18T02:00:27.389Z,4.47
2019-05-18T02:02:54.682Z,4.53
2019-05-18T02:05:21.919Z,4.00
2019-05-18T02:07:48.837Z,4.80
2019-05-18T02:10:16.525Z,4.75
2019-05-18T02:12:43.715Z,4.53
2019-05-18T02:15:11.693Z,4.42
2019-05-18T02:17:38.714Z,4.20
2019-05-18T02:20:09.230Z,4.75
2019-05-18T02:22:36.080Z,4.60
2019-05-18T02:25:07.835Z,4.50
2019-05-18T02:27:37.476Z,5.08
2019-05-18T02:30:08.445Z,4.50
2019-05-18T02:32:35.613Z,4.92
2019-05-18T02:35:06.578Z,4.83
2019-05-18T02:37:33.520Z,4.55
2019-05-18T02:40:00.320Z,4.20
2019-05-18T02:42:30.726Z,4.70
2019-05-18T02:44:56.403Z,4.40
2019-05-18T02:47:26.105Z,4.58
2019-05-18T02:49:53.138Z,4.80
2019-05-18T02:52:20.107Z,4.67
2019-05-18T02:54:46.900Z,4.62
2019-05-18T02:57:14.127Z,4.50
2019-05-18T02:59:41.117Z,4.60
2019-05-18T03:02:07.988Z,4.37
2019-05-18T03:04:35.078Z,4.50
2019-05-18T03:07:02.198Z,4.67
2019-05-18T03:09:29.350Z,4.78
2019-05-18T03:11:56.399Z,4.62
2019-05-18T03:14:26.137Z,4.72
2019-05-18T03:16:53.393Z,4.83
2019-05-18T03:19:22.616Z,4.50
2019-05-18T03:21:49.716Z,4.65
2019-05-18T03:24:16.520Z,4.42
2019-05-18T03:26:43.910Z,4.42
2019-05-18T03:29:10.818Z,4.33
2019-05-18T03:31:37.761Z,4.22
2019-05-18T03:34:04.704Z,4.70
2019-05-18T03:36:31.580Z,4.83
2019-05-18T03:38:58.538Z,4.58
2019-05-18T03:41:25.381Z,4.62
2019-05-18T03:43:52.490Z,4.50
2019-05-18T03:46:19.262Z,4.70
2019-05-18T03:48:46.611Z,4.45
2019-05-18T03:51:14.486Z,4.60
2019-05-18T03:53:41.388Z,5.17
2019-05-18T03:56:08.172Z,5.10
2019-05-18T03:58:34.989Z,4.78
2019-05-18T04:01:01.870Z,4.50
2019-05-18T04:03:28.691Z,5.17
2019-05-18T04:05:55.505Z,5.03
2019-05-18T04:08:22.323Z,4.95
2019-05-18T04:10:49.308Z,4.70
2019-05-18T04:13:17.062Z,4.90
2019-05-18T04:15:43.880Z,5.00
2019-05-18T04:18:10.821Z,5.62
2019-05-18T04:20:37.753Z,4.78
2019-05-18T04:23:04.700Z,5.25
2019-05-18T04:25:31.668Z,5.40
2019-05-18T04:27:58.667Z,5.50
2019-05-18T04:30:25.739Z,4.90
2019-05-18T04:32:52.551Z,5.12
2019-05-18T04:35:19.865Z,5.55
2019-05-18T04:37:46.779Z,4.80
2019-05-18T04:40:14.252Z,4.78
2019-05-18T04:42:41.610Z,5.20
2019-05-18T04:45:08.898Z,5.12
2019-05-18T04:47:35.931Z,4.87
2019-05-18T04:50:06.460Z,4.97
2019-05-18T04:52:33.378Z,4.80
2019-05-18T04:55:00.446Z,5.42
2019-05-18T04:57:27.654Z,5.55
2019-05-18T04:59:54.474Z,5.55
2019-05-18T05:02:21.496Z,5.28
2019-05-18T05:04:51.794Z,5.35
2019-05-18T05:07:17.070Z,5.65
2019-05-18T05:09:44.288Z,5.42
2019-05-18T05:12:11.203Z,5.45
2019-05-18T05:14:38.050Z,5.22
2019-05-18T05:17:04.817Z,5.50
2019-05-18T05:19:31.660Z,5.05
2019-05-18T05:21:58.524Z,5.05
2019-05-18T05:24:25.408Z,5.10
2019-05-18T05:26:52.167Z,5.28
2019-05-18T05:29:19.472Z,5.10
2019-05-18T05:31:46.354Z,4.85
2019-05-18T05:34:13.282Z,5.42
2019-05-18T05:36:42.976Z,5.12
2019-05-18T05:39:09.865Z,5.25
2019-05-18T05:41:36.782Z,5.47
2019-05-18T05:44:04.058Z,5.12
2019-05-18T05:46:30.828Z,5.40
2019-05-18T05:48:57.701Z,6.08
2019-05-18T05:51:24.915Z,4.87
2019-05-18T05:53:51.936Z,5.00
2019-05-18T05:56:18.905Z,5.58
2019-05-18T05:58:45.956Z,5.25
2019-05-18T06:01:12.884Z,5.40
2019-05-18T06:03:39.964Z,5.67
2019-05-18T06:06:07.027Z,5.15
2019-05-18T06:08:34.257Z,5.10
2019-05-18T06:11:01.158Z,4.60
2019-05-18T06:13:28.043Z,4.62
2019-05-18T06:15:55.252Z,4.70
2019-05-18T06:18:22.195Z,5.10
2019-05-18T06:20:51.735Z,5.05
2019-05-18T06:23:23.700Z,4.90
2019-05-18T06:25:50.711Z,5.03
2019-05-18T06:28:17.545Z,4.58
2019-05-18T06:30:44.993Z,4.22
2019-05-18T06:33:11.765Z,3.92
2019-05-18T06:35:38.668Z,5.08
2019-05-18T06:38:05.823Z,4.95
2019-05-18T06:40:33.210Z,4.33
2019-05-18T06:43:00.155Z,4.85
2019-05-18T06:45:27.113Z,4.95
2019-05-18T06:47:54.257Z,4.25
2019-05-18T06:50:28.150Z,4.80
2019-05-18T06:52:55.241Z,4.80
2019-05-18T06:55:24.938Z,4.78
2019-05-18T06:57:56.633Z,4.17
2019-05-18T07:02:52.670Z,4.42
2019-05-18T07:05:19.675Z,4.70
2019-05-18T07:07:46.985Z,4.30
2019-05-18T07:10:14.108Z,4.45
2019-05-18T07:12:42.998Z,4.62
2019-05-18T07:15:11.218Z,4.40
2019-05-18T07:17:38.545Z,4.53
2019-05-18T07:20:12.845Z,4.67
2019-05-18T07:22:40.123Z,4.55
2019-05-18T07:25:07.363Z,4.60
2019-05-18T07:27:34.942Z,4.40
2019-05-18T07:30:07.735Z,4.92
2019-05-18T07:35:02.279Z,4.70
2019-05-18T07:37:29.713Z,4.37
2019-05-18T07:39:56.571Z,4.22
2019-05-18T07:42:23.547Z,4.83
2019-05-18T07:44:50.419Z,4.58
2019-05-18T07:47:17.672Z,5.05
2019-05-18T07:49:44.768Z,5.05
2019-05-18T07:52:11.916Z,5.33
2019-05-18T07:54:38.909Z,4.55
2019-05-18T07:57:05.780Z,4.87
2019-05-18T07:59:32.546Z,5.30
2019-05-18T08:01:59.437Z,4.65
2019-05-18T08:04:26.194Z,4.60
2019-05-18T08:06:53.196Z,4.92
2019-05-18T08:09:19.950Z,5.42
2019-05-18T08:11:46.768Z,6.17
2019-05-18T08:14:13.672Z,4.97
2019-05-18T08:16:40.594Z,5.03
2019-05-18T08:19:08.044Z,4.62
2019-05-18T08:21:35.252Z,5.70
2019-05-18T08:24:02.691Z,5.22
2019-05-18T08:26:29.748Z,5.70
2019-05-18T08:28:58.394Z,5.67
2019-05-18T08:31:25.459Z,5.00
2019-05-18T08:33:55.262Z,5.17
2019-05-18T08:36:25.365Z,5.17
2019-05-18T08:38:52.226Z,5.80
2019-05-18T08:41:19.161Z,5.00
2019-05-18T08:43:45.932Z,5.20
2019-05-18T08:46:13.271Z,5.78
2019-05-18T08:48:40.213Z,5.10
2019-05-18T08:51:09.410Z,4.72
2019-05-18T08:53:36.943Z,5.75
2019-05-18T08:56:03.946Z,5.47
2019-05-18T08:58:31.250Z,5.53
2019-05-18T09:00:58.764Z,6.28
2019-05-18T09:03:26.200Z,7.70
2019-05-18T09:05:52.982Z,6.30
2019-05-18T09:08:19.917Z,6.08
2019-05-18T09:10:46.784Z,7.67
2019-05-18T09:13:14.213Z,6.80
2019-05-18T09:15:42.298Z,6.83
2019-05-18T09:18:09.656Z,6.80
2019-05-18T09:20:36.557Z,7.58
2019-05-18T09:23:03.795Z,7.60
2019-05-18T09:25:30.652Z,6.83
2019-05-18T09:27:57.503Z,7.28
2019-05-18T09:30:24.959Z,7.67
2019-05-18T09:32:51.851Z,7.95
2019-05-18T09:35:19.011Z,8.48
2019-05-18T09:37:45.816Z,8.35
2019-05-18T09:40:13.514Z,7.60
2019-05-18T09:42:40.505Z,7.28
2019-05-18T09:45:11.317Z,7.72
2019-05-18T09:47:38.405Z,8.40
2019-05-18T09:50:06.022Z,7.50
2019-05-18T09:52:44.797Z,7.90
2019-05-18T09:55:06.275Z,7.20
2019-05-18T09:57:33.297Z,8.10
2019-05-18T10:00:00.191Z,7.15
2019-05-18T10:02:27.502Z,8.63
2019-05-18T10:04:54.718Z,8.60
2019-05-18T10:07:24.040Z,6.60
2019-05-18T10:09:51.236Z,7.95
2019-05-18T10:12:18.285Z,7.12
2019-05-18T10:14:45.220Z,7.60
2019-05-18T10:17:12.143Z,7.92
2019-05-18T10:19:38.939Z,6.70
2019-05-18T10:22:06.146Z,6.17
2019-05-18T10:24:33.566Z,7.12
2019-05-18T10:27:00.886Z,7.22
2019-05-18T10:29:27.758Z,6.28
2019-05-18T10:31:54.638Z,7.37
2019-05-18T10:34:21.630Z,7.42
2019-05-18T10:36:48.479Z,6.22
2019-05-18T10:39:15.416Z,5.80
2019-05-18T10:41:42.382Z,6.30
2019-05-18T10:44:09.285Z,6.70
2019-05-18T10:46:36.238Z,6.05
2019-05-18T10:49:03.246Z,7.92
2019-05-18T10:51:33.104Z,6.05
2019-05-18T10:54:00.293Z,5.65
2019-05-18T10:56:27.148Z,5.85
2019-05-18T10:58:54.157Z,6.25
2019-05-18T11:01:21.238Z,7.10
2019-05-18T11:03:48.074Z,6.60
2019-05-18T11:06:15.488Z,5.70
2019-05-18T11:08:42.513Z,6.47
2019-05-18T11:11:09.674Z,6.75
2019-05-18T11:13:36.479Z,6.67
2019-05-18T11:16:03.625Z,6.62
2019-05-18T11:18:30.969Z,6.87
2019-05-18T11:20:58.199Z,6.72
2019-05-18T11:23:25.399Z,6.62
2019-05-18T11:25:55.305Z,5.47
2019-05-18T11:28:22.316Z,5.72
2019-05-18T11:30:50.037Z,6.00
2019-05-18T11:33:17.332Z,6.05
2019-05-18T11:35:44.218Z,6.50
2019-05-18T11:38:11.121Z,5.22
2019-05-18T11:40:38.138Z,4.70
2019-05-18T11:43:05.640Z,4.90
2019-05-18T11:45:32.788Z,4.80
2019-05-18T11:47:59.663Z,5.17
2019-05-18T11:50:27.254Z,5.50
2019-05-18T11:52:54.052Z,4.95
2019-05-18T11:55:23.376Z,5.22
2019-05-18T11:57:50.269Z,5.30
2019-05-18T12:00:18.812Z,5.10
2019-05-18T12:02:45.692Z,4.78
2019-05-18T12:05:13.307Z,4.60
2019-05-18T12:07:40.518Z,4.70
2019-05-18T12:10:10.378Z,3.98
2019-05-18T12:12:37.357Z,5.60
2019-05-18T12:15:09.307Z,4.47
2019-05-18T12:17:36.290Z,4.83
2019-05-18T12:20:08.651Z,5.62
2019-05-18T12:22:35.832Z,5.00
2019-05-18T12:25:06.079Z,3.58
2019-05-18T12:27:33.258Z,4.35
2019-05-18T12:30:02.473Z,3.60
2019-05-18T12:32:29.408Z,4.60
2019-05-18T12:34:56.687Z,3.92
2019-05-18T12:37:23.705Z,4.47
2019-05-18T12:39:52.537Z,3.50
2019-05-18T12:42:21.333Z,3.20
2019-05-18T12:44:48.594Z,3.05
2019-05-18T12:47:15.616Z,3.22
2019-05-18T12:49:42.781Z,4.70
2019-05-18T12:52:10.019Z,3.90
2019-05-18T12:54:46.009Z,4.30
2019-05-18T12:57:06.399Z,4.05
2019-05-18T12:59:35.647Z,4.12
2019-05-18T13:02:02.780Z,4.05
2019-05-18T13:04:31.330Z,4.58
2019-05-18T13:06:58.132Z,3.70
2019-05-18T13:09:25.087Z,4.20
2019-05-18T13:11:51.884Z,4.35
2019-05-18T13:14:18.918Z,3.58
2019-05-18T13:16:45.858Z,3.40
2019-05-18T13:19:12.862Z,3.00
2019-05-18T13:21:39.756Z,2.62
2019-05-18T13:24:06.862Z,3.40
2019-05-18T13:26:34.004Z,2.75
2019-05-18T13:29:00.952Z,3.00
2019-05-18T13:31:27.789Z,2.80
2019-05-18T13:33:54.717Z,3.02
2019-05-18T13:36:21.587Z,3.33
2019-05-18T13:38:48.585Z,2.72
2019-05-18T13:41:15.374Z,2.90
2019-05-18T13:43:42.287Z,3.10
2019-05-18T13:46:11.034Z,2.77
2019-05-18T13:48:37.867Z,3.20
2019-05-18T13:51:04.755Z,2.83
2019-05-18T13:53:31.561Z,2.67
2019-05-18T13:55:58.424Z,3.08
2019-05-18T13:58:25.299Z,2.90
2019-05-18T14:00:52.529Z,3.30
2019-05-18T14:03:19.496Z,4.12
2019-05-18T14:05:46.410Z,3.60
2019-05-18T14:08:16.019Z,4.72
2019-05-18T14:10:43.279Z,4.08
2019-05-18T14:13:10.396Z,3.60
2019-05-18T14:15:37.329Z,2.67
2019-05-18T14:18:04.349Z,4.20
2019-05-18T14:20:31.120Z,3.47
2019-05-18T14:22:58.012Z,3.87
2019-05-18T14:25:25.166Z,3.50
2019-05-18T14:27:56.833Z,3.67
2019-05-18T14:30:24.057Z,4.03
2019-05-18T14:32:52.913Z,4.03
2019-05-18T14:35:19.699Z,3.67
2019-05-18T14:37:46.755Z,3.52
2019-05-18T14:40:15.060Z,3.62
2019-05-18T14:42:41.853Z,3.02
2019-05-18T14:45:09.938Z,2.60
2019-05-18T14:47:37.038Z,2.05
2019-05-18T14:50:05.416Z,2.30
2019-05-18T14:52:32.218Z,2.05
2019-05-18T14:54:59.496Z,2.00
2019-05-18T14:57:26.529Z,1.90
2019-05-18T14:59:53.393Z,2.20
2019-05-18T15:02:20.455Z,1.95
2019-05-18T15:04:47.445Z,2.17
2019-05-18T15:07:14.547Z,2.12
2019-05-18T15:09:41.664Z,2.25
2019-05-18T15:12:09.156Z,2.75
2019-05-18T15:14:36.058Z,2.45
2019-05-18T15:17:02.988Z,2.60
2019-05-18T15:19:30.175Z,2.98
2019-05-18T15:21:57.242Z,3.10
2019-05-18T15:24:24.008Z,2.95
2019-05-18T15:26:50.949Z,2.17
2019-05-18T15:29:20.940Z,2.45
2019-05-18T15:31:47.915Z,2.20
2019-05-18T15:34:14.866Z,2.15
2019-05-18T15:36:41.883Z,2.10
2019-05-18T15:39:09.097Z,2.00
2019-05-18T15:41:36.266Z,2.00
2019-05-18T15:44:06.397Z,1.95
2019-05-18T15:46:33.314Z,1.87
2019-05-18T15:49:00.302Z,2.00
2019-05-18T15:51:27.096Z,1.65
2019-05-18T15:53:53.845Z,1.92
2019-05-18T15:56:20.642Z,1.65
2019-05-18T15:58:47.582Z,1.77
2019-05-18T16:01:15.199Z,1.50
2019-05-18T16:03:42.243Z,1.60
2019-05-18T16:06:09.145Z,1.80
2019-05-18T16:08:35.946Z,1.55
2019-05-18T16:11:03.007Z,1.60
2019-05-18T16:13:29.937Z,1.80
2019-05-18T16:15:56.985Z,1.80
2019-05-18T16:18:24.118Z,1.92
2019-05-18T16:20:50.894Z,1.70
2019-05-18T16:23:18.921Z,1.57
2019-05-18T16:25:46.425Z,2.00
2019-05-18T16:28:13.500Z,2.00
2019-05-18T16:30:40.279Z,1.92
2019-05-18T16:33:07.406Z,2.02
2019-05-18T16:35:34.362Z,2.20
2019-05-18T16:38:01.238Z,1.90
2019-05-18T16:40:28.078Z,1.55
2019-05-18T16:42:57.529Z,1.90
2019-05-18T16:45:24.658Z,1.60
2019-05-18T16:47:51.586Z,2.80
2019-05-18T16:50:20.946Z,1.77
2019-05-18T16:52:48.598Z,2.12
2019-05-18T16:55:16.013Z,1.90
2019-05-18T16:57:42.923Z,2.20
2019-05-18T17:00:15.160Z,2.35
2019-05-18T17:02:40.419Z,2.00
2019-05-18T17:05:07.814Z,1.92
2019-05-18T17:07:34.991Z,1.82
2019-05-18T17:10:04.017Z,2.25
2019-05-18T17:12:31.380Z,2.12
2019-05-18T17:14:58.262Z,2.45
2019-05-18T17:17:25.209Z,2.62
2019-05-18T17:19:52.205Z,3.37
2019-05-18T17:22:19.104Z,3.12
2019-05-18T17:24:45.937Z,2.50
2019-05-18T17:27:12.986Z,2.45
2019-05-18T17:29:39.795Z,2.60
2019-05-18T17:32:07.455Z,2.47
2019-05-18T17:34:34.610Z,2.42
2019-05-18T17:37:05.156Z,2.90
2019-05-18T17:39:32.416Z,2.42
2019-05-18T17:41:59.265Z,3.02
2019-05-18T17:44:26.141Z,2.45
2019-05-18T17:46:53.272Z,2.55
2019-05-18T17:49:26.831Z,2.85
2019-05-18T17:51:51.254Z,3.17
2019-05-18T17:54:18.135Z,2.55
2019-05-18T17:56:44.950Z,3.17
2019-05-18T17:59:12.656Z,2.98
2019-05-18T18:01:39.532Z,2.50
2019-05-18T18:04:06.701Z,2.40
2019-05-18T18:06:33.868Z,2.27
2019-05-18T18:09:01.258Z,2.90
2019-05-18T18:11:28.892Z,2.72
2019-05-18T18:13:56.229Z,2.90
2019-05-18T18:16:24.002Z,2.80
2019-05-18T18:18:53.951Z,2.52
2019-05-18T18:21:21.266Z,3.15
2019-05-18T18:23:54.832Z,2.95
2019-05-18T18:26:17.122Z,2.70
2019-05-18T18:28:44.706Z,2.92
2019-05-18T18:31:11.768Z,6.42
2019-05-18T18:33:38.791Z,4.45
2019-05-18T18:36:05.544Z,4.28
2019-05-18T18:38:32.408Z,4.15
2019-05-18T18:40:59.495Z,3.42
2019-05-18T18:43:26.552Z,3.58
2019-05-18T18:45:53.488Z,3.50
2019-05-18T18:48:20.440Z,3.10
2019-05-18T18:50:47.426Z,3.10
2019-05-18T18:53:14.314Z,2.90
2019-05-18T18:55:41.140Z,3.75
2019-05-18T18:58:07.911Z,3.25
2019-05-18T19:00:35.066Z,3.00
2019-05-18T19:03:01.901Z,3.00
2019-05-18T19:05:28.830Z,3.90
2019-05-18T19:07:55.949Z,3.37
2019-05-18T19:10:23.234Z,3.52
2019-05-18T19:12:50.552Z,3.37
2019-05-18T19:15:18.259Z,3.12
2019-05-18T19:17:45.038Z,2.90
2019-05-18T19:20:13.543Z,3.27
2019-05-18T19:22:40.353Z,3.15
2019-05-18T19:25:08.833Z,3.25
2019-05-18T19:27:38.715Z,2.90
2019-05-18T19:30:09.786Z,3.20
2019-05-18T19:32:36.079Z,4.37
2019-05-18T19:35:06.248Z,3.27
2019-05-18T19:37:33.143Z,3.67
2019-05-18T19:40:00.407Z,3.52
2019-05-18T19:42:27.155Z,3.10
2019-05-18T19:44:53.967Z,3.02
2019-05-18T19:47:20.753Z,3.22
2019-05-18T19:49:47.646Z,3.45
2019-05-18T19:52:14.581Z,4.05
2019-05-18T19:54:41.479Z,4.42
2019-05-18T19:57:08.485Z,4.22
2019-05-18T19:59:35.320Z,3.70
2019-05-18T20:02:02.364Z,4.15
2019-05-18T20:04:29.267Z,4.15
2019-05-18T20:06:57.039Z,3.50
2019-05-18T20:09:26.008Z,3.50
2019-05-18T20:11:53.057Z,3.50
2019-05-18T20:14:20.284Z,3.67
2019-05-18T20:16:47.541Z,4.28
2019-05-18T20:19:14.398Z,5.08
2019-05-18T20:21:41.417Z,4.83
2019-05-18T20:24:08.424Z,4.45
2019-05-18T20:26:35.671Z,4.67
2019-05-18T20:29:03.230Z,4.95
2019-05-18T20:31:30.930Z,4.80
2019-05-18T20:34:00.904Z,4.87
2019-05-18T20:36:27.809Z,6.20
2019-05-18T20:38:54.639Z,6.20
2019-05-18T20:41:24.786Z,5.83
2019-05-18T20:44:09.729Z,6.33
2019-05-18T20:46:37.313Z,6.28
2019-05-18T20:49:04.399Z,5.60
2019-05-18T20:51:31.543Z,5.90
2019-05-18T20:53:58.472Z,5.80
2019-05-18T20:56:25.649Z,6.42
2019-05-18T20:58:52.458Z,6.12
2019-05-18T21:01:25.987Z,5.62
2019-05-18T21:03:53.076Z,5.10
2019-05-18T21:06:20.094Z,5.40
2019-05-18T21:08:47.100Z,5.80
2019-05-18T21:11:14.226Z,4.92
2019-05-18T21:13:44.396Z,5.40
2019-05-18T21:16:11.382Z,4.35
2019-05-18T21:18:38.462Z,4.37
2019-05-18T21:21:05.338Z,4.40
2019-05-18T21:23:34.945Z,4.42
2019-05-18T21:26:01.928Z,4.78
2019-05-18T21:28:28.719Z,4.55
2019-05-18T21:30:55.853Z,4.90
2019-05-18T21:33:22.797Z,5.40
2019-05-18T21:35:58.624Z,4.90
2019-05-18T21:38:28.702Z,4.80
2019-05-18T21:40:55.490Z,4.78
2019-05-18T21:43:22.293Z,3.92
2019-05-18T21:45:49.643Z,3.77
2019-05-18T21:48:16.493Z,3.92
2019-05-18T21:50:43.350Z,3.80
2019-05-18T21:53:10.374Z,3.55
2019-05-18T21:55:39.548Z,3.30
2019-05-18T21:58:06.446Z,3.30
2019-05-18T22:00:33.993Z,3.08
2019-05-18T22:03:00.970Z,3.55
2019-05-18T22:05:27.725Z,3.52
2019-05-18T22:07:56.896Z,4.20
2019-05-18T22:10:26.094Z,3.83
2019-05-18T22:12:53.114Z,3.52
2019-05-18T22:15:20.230Z,3.60
2019-05-18T22:18:01.996Z,3.87
2019-05-18T22:20:28.983Z,3.75
2019-05-18T22:22:58.879Z,4.15
2019-05-18T22:25:26.224Z,3.60
2019-05-18T22:27:53.065Z,4.03
2019-05-18T22:30:20.647Z,3.45
2019-05-18T22:32:47.464Z,4.00
2019-05-18T22:35:14.757Z,3.80
2019-05-18T22:37:41.766Z,3.70
2019-05-18T22:40:08.651Z,3.58
2019-05-18T22:42:35.847Z,3.25
2019-05-18T22:45:04.254Z,3.50
2019-05-18T22:47:31.168Z,3.75
2019-05-18T22:49:57.922Z,3.50
2019-05-18T22:52:24.878Z,3.50
2019-05-18T22:54:51.776Z,3.75
2019-05-18T22:57:18.652Z,4.12
2019-05-18T22:59:45.550Z,3.62
2019-05-18T23:02:12.439Z,3.50
2019-05-18T23:04:39.807Z,3.52
2019-05-18T23:07:06.635Z,3.45
2019-05-18T23:09:34.324Z,3.40
2019-05-18T23:12:01.161Z,3.92
2019-05-18T23:14:28.007Z,3.52
2019-05-18T23:16:54.991Z,3.98
2019-05-18T23:19:21.808Z,3.87
2019-05-18T23:21:48.862Z,3.40
2019-05-18T23:24:16.129Z,3.58
2019-05-18T23:26:43.042Z,3.80
2019-05-18T23:29:09.906Z,3.65
2019-05-18T23:31:36.923Z,3.58
2019-05-18T23:34:04.079Z,3.60
2019-05-18T23:36:31.033Z,3.60
2019-05-18T23:38:58.033Z,3.37
2019-05-18T23:41:24.880Z,4.10
2019-05-18T23:43:51.872Z,3.37
2019-05-18T23:46:18.909Z,3.05
2019-05-18T23:48:46.119Z,3.30
2019-05-18T23:51:13.489Z,3.22
2019-05-18T23:53:40.539Z,3.80
2019-05-18T23:56:07.483Z,3.25
2019-05-18T23:58:34.292Z,3.87
